createdAt,value
2018-03-02T00:00:37.000Z,25.2
2018-03-02T00:02:37.000Z,25.2
2018-03-02T00:03:37.000Z,25.2
2018-03-02T00:04:37.000Z,25.3
2018-03-02T00:05:37.000Z,25.3
2018-03-02T00:07:22.000Z,25.4
2018-03-02T00:08:37.000Z,25.3
2018-03-02T00:10:37.000Z,25.3
2018-03-02T00:12:22.000Z,25.2
2018-03-02T00:13:37.000Z,25.2
2018-03-02T00:14:37.000Z,25.2
2018-03-02T00:16:37.000Z,25.2
2018-03-02T00:17:37.000Z,25.2
2018-03-02T00:19:37.000Z,25.2
2018-03-02T00:21:22.000Z,25.2
2018-03-02T00:22:37.000Z,25.2
2018-03-02T00:24:37.000Z,25.2
2018-03-02T00:26:37.000Z,25.1
2018-03-02T00:27:37.000Z,25.1
2018-03-02T00:28:37.000Z,25.1
2018-03-02T00:30:37.000Z,25.1
2018-03-02T00:31:37.000Z,25.1
2018-03-02T00:32:37.000Z,25.2
2018-03-02T00:34:37.000Z,25.2
2018-03-02T00:35:37.000Z,25.3
2018-03-02T00:36:37.000Z,25.3
2018-03-02T00:38:37.000Z,25.3
2018-03-02T00:39:37.000Z,25.3
2018-03-02T00:40:37.000Z,25.3
2018-03-02T00:42:37.000Z,25.3
2018-03-02T00:43:37.000Z,25.3
2018-03-02T00:45:37.000Z,25.3
2018-03-02T00:46:37.000Z,25.3
2018-03-02T00:48:37.000Z,25.3
2018-03-02T00:50:37.000Z,25.2
2018-03-02T00:51:37.000Z,25.1
2018-03-02T00:53:37.000Z,25.1
2018-03-02T00:54:37.000Z,25.1
2018-03-02T00:55:37.000Z,25.2
2018-03-02T00:56:37.000Z,25.2
2018-03-02T00:58:37.000Z,25.2
2018-03-02T01:00:37.000Z,25.1
2018-03-02T01:02:37.000Z,25
2018-03-02T01:03:37.000Z,25
2018-03-02T01:05:37.000Z,25
2018-03-02T01:06:37.000Z,25.1
2018-03-02T01:07:37.000Z,25.1
2018-03-02T01:08:37.000Z,25.2
2018-03-02T01:10:37.000Z,25.3
2018-03-02T01:12:37.000Z,25.3
2018-03-02T01:13:37.000Z,25.3
2018-03-02T01:14:37.000Z,25.3
2018-03-02T01:16:37.000Z,25.2
2018-03-02T01:18:37.000Z,25.2
2018-03-02T01:19:37.000Z,25.2
2018-03-02T01:21:37.000Z,25.1
2018-03-02T01:22:37.000Z,25.1
2018-03-02T01:24:37.000Z,25.1
2018-03-02T01:25:37.000Z,25.1
2018-03-02T01:27:37.000Z,25.2
2018-03-02T01:28:37.000Z,25.2
2018-03-02T01:29:37.000Z,25.2
2018-03-02T01:30:37.000Z,25.3
2018-03-02T01:31:37.000Z,25.3
2018-03-02T01:33:37.000Z,25.3
2018-03-02T01:35:37.000Z,25.2
2018-03-02T01:37:37.000Z,25.1
2018-03-02T01:39:37.000Z,25
2018-03-02T01:40:37.000Z,25
2018-03-02T01:42:37.000Z,25
2018-03-02T01:43:37.000Z,25
2018-03-02T01:45:22.000Z,25.1
2018-03-02T01:46:37.000Z,25
2018-03-02T01:47:37.000Z,25
2018-03-02T01:48:37.000Z,25
2018-03-02T01:49:37.000Z,25.1
2018-03-02T01:50:37.000Z,25.1
2018-03-02T01:52:22.000Z,25.1
2018-03-02T01:53:37.000Z,25.1
2018-03-02T01:55:37.000Z,25.1
2018-03-02T01:56:37.000Z,25.1
2018-03-02T01:58:37.000Z,25.1
2018-03-02T02:00:37.000Z,25.1
2018-03-02T02:02:37.000Z,25.1
2018-03-02T02:04:37.000Z,25
2018-03-02T02:06:37.000Z,25
2018-03-02T02:08:37.000Z,25
2018-03-02T02:09:37.000Z,25
2018-03-02T02:11:37.000Z,25
2018-03-02T02:13:37.000Z,25
2018-03-02T02:14:37.000Z,25
2018-03-02T02:16:37.000Z,25
2018-03-02T02:17:37.000Z,25
2018-03-02T02:18:37.000Z,25.1
2018-03-02T02:20:37.000Z,25.1
2018-03-02T02:21:37.000Z,25.1
2018-03-02T02:23:37.000Z,25.1
2018-03-02T02:24:38.000Z,25.1
2018-03-02T02:26:38.000Z,25.1
2018-03-02T02:27:38.000Z,25.1
2018-03-02T02:29:38.000Z,25.1
2018-03-02T02:31:38.000Z,25.1
2018-03-02T02:32:38.000Z,25.1
2018-03-02T02:33:38.000Z,25.1
2018-03-02T02:35:38.000Z,25.1
2018-03-02T02:37:38.000Z,25.1
2018-03-02T02:39:38.000Z,25.1
2018-03-02T02:40:38.000Z,25.1
2018-03-02T02:42:38.000Z,25.1
2018-03-02T02:44:38.000Z,25.1
2018-03-02T02:46:22.000Z,25
2018-03-02T02:47:38.000Z,25
2018-03-02T02:49:38.000Z,24.9
2018-03-02T02:50:38.000Z,24.9
2018-03-02T02:52:38.000Z,24.9
2018-03-02T02:54:38.000Z,24.9
2018-03-02T02:56:38.000Z,24.8
2018-03-02T02:58:38.000Z,24.8
2018-03-02T02:59:38.000Z,24.8
2018-03-02T03:00:38.000Z,24.9
2018-03-02T03:01:38.000Z,25
2018-03-02T03:03:38.000Z,25
2018-03-02T03:05:38.000Z,25
2018-03-02T03:07:22.000Z,25
2018-03-02T03:08:38.000Z,24.9
2018-03-02T03:09:38.000Z,25
2018-03-02T03:10:38.000Z,25
2018-03-02T03:12:38.000Z,25.1
2018-03-02T03:13:38.000Z,25.1
2018-03-02T03:15:38.000Z,25
2018-03-02T03:16:38.000Z,25
2018-03-02T03:18:38.000Z,25
2018-03-02T03:19:38.000Z,25
2018-03-02T03:21:22.000Z,25
2018-03-02T03:22:38.000Z,25
2018-03-02T03:23:38.000Z,25
2018-03-02T03:25:38.000Z,25
2018-03-02T03:27:37.000Z,25
2018-03-02T03:28:37.000Z,25
2018-03-02T03:30:37.000Z,25
2018-03-02T03:32:37.000Z,25
2018-03-02T03:34:37.000Z,25
2018-03-02T03:35:37.000Z,24.9
2018-03-02T03:37:37.000Z,24.9
2018-03-02T03:38:37.000Z,25
2018-03-02T03:39:37.000Z,25
2018-03-02T03:41:37.000Z,25.1
2018-03-02T03:43:37.000Z,25.1
2018-03-02T03:44:37.000Z,25.1
2018-03-02T03:45:37.000Z,25.1
2018-03-02T03:46:37.000Z,25.1
2018-03-02T03:48:37.000Z,25.1
2018-03-02T03:50:37.000Z,25
2018-03-02T03:51:37.000Z,25
2018-03-02T03:52:37.000Z,25
2018-03-02T03:54:37.000Z,25
2018-03-02T03:56:37.000Z,25
2018-03-02T03:57:37.000Z,25
2018-03-02T03:58:37.000Z,25
2018-03-02T04:00:37.000Z,25
2018-03-02T04:01:37.000Z,25
2018-03-02T04:03:37.000Z,25
2018-03-02T04:04:37.000Z,25
2018-03-02T04:05:37.000Z,25
2018-03-02T04:06:37.000Z,25
2018-03-02T04:08:37.000Z,25
2018-03-02T04:09:37.000Z,25
2018-03-02T04:11:37.000Z,25
2018-03-02T04:12:37.000Z,25
2018-03-02T04:14:37.000Z,25
2018-03-02T04:16:37.000Z,24.9
2018-03-02T04:17:37.000Z,24.9
2018-03-02T04:18:37.000Z,24.9
2018-03-02T04:20:37.000Z,25
2018-03-02T04:22:37.000Z,24.9
2018-03-02T04:23:37.000Z,24.9
2018-03-02T04:25:22.000Z,25
2018-03-02T04:26:37.000Z,24.9
2018-03-02T04:27:37.000Z,24.9
2018-03-02T04:29:37.000Z,25
2018-03-02T04:30:37.000Z,25
2018-03-02T04:31:37.000Z,25
2018-03-02T04:32:37.000Z,25
2018-03-02T04:34:37.000Z,25.1
2018-03-02T04:35:37.000Z,25.1
2018-03-02T04:36:37.000Z,25.1
2018-03-02T04:38:22.000Z,25.1
2018-03-02T04:39:37.000Z,25.1
2018-03-02T04:40:37.000Z,25.1
2018-03-02T04:41:37.000Z,25.1
2018-03-02T04:43:37.000Z,25.1
2018-03-02T04:45:37.000Z,25.1
2018-03-02T04:47:37.000Z,25
2018-03-02T04:49:37.000Z,24.9
2018-03-02T04:50:37.000Z,24.9
2018-03-02T04:52:37.000Z,24.9
2018-03-02T04:54:37.000Z,24.9
2018-03-02T04:56:37.000Z,24.9
2018-03-02T04:58:37.000Z,24.8
2018-03-02T04:59:37.000Z,24.8
2018-03-02T05:01:37.000Z,24.8
2018-03-02T05:02:37.000Z,24.8
2018-03-02T05:04:37.000Z,24.8
2018-03-02T05:05:37.000Z,24.9
2018-03-02T05:07:37.000Z,24.9
2018-03-02T05:08:37.000Z,24.9
2018-03-02T05:09:37.000Z,25
2018-03-02T05:11:37.000Z,25
2018-03-02T05:12:37.000Z,25
2018-03-02T05:14:37.000Z,25
2018-03-02T05:16:37.000Z,24.9
2018-03-02T05:17:37.000Z,24.9
2018-03-02T05:18:37.000Z,24.9
2018-03-02T05:19:37.000Z,24.9
2018-03-02T05:21:37.000Z,25
2018-03-02T05:23:37.000Z,25
2018-03-02T05:25:37.000Z,24.9
2018-03-02T05:26:37.000Z,24.9
2018-03-02T05:28:37.000Z,24.8
2018-03-02T05:30:37.000Z,24.8
2018-03-02T05:32:37.000Z,24.7
2018-03-02T05:34:37.000Z,24.7
2018-03-02T05:36:37.000Z,24.6
2018-03-02T05:40:32.000Z,25
2018-03-02T05:42:31.000Z,25.1
2018-03-02T05:43:31.000Z,25.2
2018-03-02T05:45:16.000Z,25.2
2018-03-02T05:46:31.000Z,25.1
2018-03-02T05:48:31.000Z,25.1
2018-03-02T05:49:31.000Z,25.1
2018-03-02T05:51:16.000Z,25.1
2018-03-02T05:52:31.000Z,25.1
2018-03-02T05:54:16.000Z,25.1
2018-03-02T05:55:31.000Z,25.1
2018-03-02T05:56:31.000Z,25.1
2018-03-02T05:57:31.000Z,25.1
2018-03-02T05:59:31.000Z,25.2
2018-03-02T06:01:31.000Z,25.3
2018-03-02T06:02:31.000Z,25.3
2018-03-02T06:03:31.000Z,25.3
2018-03-02T06:04:31.000Z,25.4
2018-03-02T06:06:31.000Z,25.5
2018-03-02T06:08:31.000Z,25.5
2018-03-02T06:09:31.000Z,25.5
2018-03-02T06:11:31.000Z,25.5
2018-03-02T06:12:31.000Z,25.5
2018-03-02T06:14:31.000Z,25.5
2018-03-02T06:15:31.000Z,25.5
2018-03-02T06:17:31.000Z,25.5
2018-03-02T06:19:31.000Z,25.5
2018-03-02T06:21:31.000Z,25.5
2018-03-02T06:22:31.000Z,25.5
2018-03-02T06:23:31.000Z,25.5
2018-03-02T06:25:31.000Z,25.6
2018-03-02T06:26:31.000Z,25.7
2018-03-02T06:27:31.000Z,25.7
2018-03-02T06:28:31.000Z,25.8
2018-03-02T06:30:31.000Z,25.8
2018-03-02T06:32:31.000Z,25.8
2018-03-02T06:33:31.000Z,25.8
2018-03-02T06:34:31.000Z,25.8
2018-03-02T06:36:31.000Z,25.9
2018-03-02T06:37:31.000Z,25.9
2018-03-02T06:39:32.000Z,25.9
2018-03-02T06:41:32.000Z,25.9
2018-03-02T06:43:32.000Z,25.8
2018-03-02T06:44:32.000Z,25.8
2018-03-02T06:46:32.000Z,25.7
2018-03-02T06:48:32.000Z,25.6
2018-03-02T06:49:32.000Z,25.7
2018-03-02T06:51:32.000Z,25.7
2018-03-02T06:53:32.000Z,25.8
2018-03-02T06:55:32.000Z,25.8
2018-03-02T06:56:32.000Z,25.8
2018-03-02T06:57:32.000Z,25.9
2018-03-02T06:59:32.000Z,26.1
2018-03-02T07:01:32.000Z,26.1
2018-03-02T07:03:32.000Z,26
2018-03-02T07:05:32.000Z,26
2018-03-02T07:06:32.000Z,26
2018-03-02T07:08:32.000Z,26.1
2018-03-02T07:10:32.000Z,26.1
2018-03-02T07:11:32.000Z,26.1
2018-03-02T07:13:32.000Z,26.3
2018-03-02T07:14:32.000Z,26.4
2018-03-02T07:16:32.000Z,26.5
2018-03-02T07:17:32.000Z,26.5
2018-03-02T07:18:32.000Z,26.6
2018-03-02T07:20:32.000Z,26.8
2018-03-02T07:22:32.000Z,26.9
2018-03-02T07:24:32.000Z,26.9
2018-03-02T07:25:32.000Z,26.9
2018-03-02T07:27:32.000Z,26.9
2018-03-02T07:28:32.000Z,27
2018-03-02T07:29:32.000Z,27
2018-03-02T07:31:32.000Z,27.1
2018-03-02T07:33:32.000Z,27.3
2018-03-02T07:35:32.000Z,27.3
2018-03-02T07:36:32.000Z,27.4
2018-03-02T07:38:17.000Z,27.5
2018-03-02T07:39:32.000Z,27.5
2018-03-02T07:41:32.000Z,27.5
2018-03-02T07:42:32.000Z,27.6
2018-03-02T07:44:32.000Z,27.7
2018-03-02T07:46:32.000Z,27.9
2018-03-02T07:47:32.000Z,27.9
2018-03-02T07:48:32.000Z,28
2018-03-02T07:50:32.000Z,28.1
2018-03-02T07:52:32.000Z,28.2
2018-03-02T07:53:32.000Z,28.3
2018-03-02T07:55:32.000Z,28.3
2018-03-02T07:56:32.000Z,28.4
2018-03-02T07:57:32.000Z,28.5
2018-03-02T07:59:17.000Z,28.7
2018-03-02T08:00:32.000Z,28.7
2018-03-02T08:02:32.000Z,28.9
2018-03-02T08:04:32.000Z,29
2018-03-02T08:05:32.000Z,29.1
2018-03-02T08:06:32.000Z,29.2
2018-03-02T08:07:32.000Z,29.3
2018-03-02T08:08:32.000Z,29.5
2018-03-02T08:10:32.000Z,29.7
2018-03-02T08:11:32.000Z,29.9
2018-03-02T08:13:32.000Z,30.1
2018-03-02T08:14:32.000Z,30.2
2018-03-02T08:15:32.000Z,30.3
2018-03-02T08:16:32.000Z,30.5
2018-03-02T08:18:32.000Z,30.6
2018-03-02T08:19:32.000Z,30.7
2018-03-02T08:20:32.000Z,30.8
2018-03-02T08:22:17.000Z,31
2018-03-02T08:23:32.000Z,30.9
2018-03-02T08:24:32.000Z,30.8
2018-03-02T08:25:32.000Z,30.7
2018-03-02T08:27:32.000Z,30.8
2018-03-02T08:28:32.000Z,30.8
2018-03-02T08:30:17.000Z,30.9
2018-03-02T08:31:32.000Z,30.9
2018-03-02T08:32:32.000Z,31
2018-03-02T08:33:32.000Z,31.1
2018-03-02T08:35:32.000Z,31
2018-03-02T08:36:32.000Z,30.8
2018-03-02T08:37:32.000Z,30.5
2018-03-02T08:39:32.000Z,30.1
2018-03-02T08:40:32.000Z,29.9
2018-03-02T08:41:32.000Z,29.8
2018-03-02T08:43:32.000Z,29.6
2018-03-02T08:44:32.000Z,29.5
2018-03-02T08:46:32.000Z,29.3
2018-03-02T08:47:32.000Z,29.2
2018-03-02T08:48:32.000Z,29.1
2018-03-02T08:49:32.000Z,29.1
2018-03-02T08:51:32.000Z,29
2018-03-02T08:53:32.000Z,28.9
2018-03-02T08:55:32.000Z,28.7
2018-03-02T08:56:32.000Z,28.6
2018-03-02T08:58:32.000Z,28.6
2018-03-02T08:59:32.000Z,28.6
2018-03-02T09:01:32.000Z,28.6
2018-03-02T09:03:32.000Z,28.5
2018-03-02T09:04:32.000Z,28.5
2018-03-02T09:06:32.000Z,28.5
2018-03-02T09:07:32.000Z,28.5
2018-03-02T09:09:32.000Z,28.4
2018-03-02T09:11:32.000Z,28.3
2018-03-02T09:13:32.000Z,28.3
2018-03-02T09:15:16.000Z,28.3
2018-03-02T09:16:32.000Z,28.2
2018-03-02T09:18:32.000Z,28.2
2018-03-02T09:20:32.000Z,28.2
2018-03-02T09:22:32.000Z,28.1
2018-03-02T09:23:32.000Z,28.1
2018-03-02T09:24:32.000Z,28.2
2018-03-02T09:25:32.000Z,28.3
2018-03-02T09:27:32.000Z,28.4
2018-03-02T09:28:32.000Z,28.4
2018-03-02T09:30:32.000Z,28.3
2018-03-02T09:31:32.000Z,28.3
2018-03-02T09:32:32.000Z,28.3
2018-03-02T09:34:32.000Z,28.3
2018-03-02T09:36:32.000Z,28.2
2018-03-02T09:38:32.000Z,28.2
2018-03-02T09:40:32.000Z,28.1
2018-03-02T09:41:32.000Z,28.1
2018-03-02T09:42:32.000Z,28.2
2018-03-02T09:44:32.000Z,28.2
2018-03-02T09:45:32.000Z,28.3
2018-03-02T09:46:32.000Z,28.3
2018-03-02T09:48:32.000Z,28.3
2018-03-02T09:50:17.000Z,28.3
2018-03-02T09:51:32.000Z,28.2
2018-03-02T09:53:32.000Z,28.2
2018-03-02T09:55:32.000Z,28.1
2018-03-02T09:56:32.000Z,28.1
2018-03-02T09:58:32.000Z,28.1
2018-03-02T10:00:32.000Z,28.1
2018-03-02T10:02:32.000Z,28.1
2018-03-02T10:03:32.000Z,28.1
2018-03-02T10:04:32.000Z,28.1
2018-03-02T10:05:32.000Z,28.2
2018-03-02T10:07:32.000Z,28.3
2018-03-02T10:09:32.000Z,28.3
2018-03-02T10:11:32.000Z,28.3
2018-03-02T10:12:32.000Z,28.3
2018-03-02T10:13:32.000Z,28.3
2018-03-02T10:15:32.000Z,28.3
2018-03-02T10:16:32.000Z,28.3
2018-03-02T10:17:32.000Z,28.3
2018-03-02T10:19:32.000Z,28.3
2018-03-02T10:20:32.000Z,28.3
2018-03-02T10:21:32.000Z,28.3
2018-03-02T10:23:32.000Z,28.4
2018-03-02T10:24:32.000Z,28.4
2018-03-02T10:26:32.000Z,28.4
2018-03-02T10:27:32.000Z,28.4
2018-03-02T10:29:32.000Z,28.3
2018-03-02T10:30:32.000Z,28.3
2018-03-02T10:31:32.000Z,28.3
2018-03-02T10:33:32.000Z,28.3
2018-03-02T10:34:32.000Z,28.3
2018-03-02T10:35:32.000Z,28.3
2018-03-02T10:36:32.000Z,28.4
2018-03-02T10:37:32.000Z,28.4
2018-03-02T10:39:32.000Z,28.4
2018-03-02T10:40:32.000Z,28.5
2018-03-02T10:42:32.000Z,28.4
2018-03-02T10:44:32.000Z,28.4
2018-03-02T10:45:32.000Z,28.3
2018-03-02T10:47:32.000Z,28.3
2018-03-02T10:49:32.000Z,28.3
2018-03-02T10:51:32.000Z,28.2
2018-03-02T10:53:32.000Z,28.1
2018-03-02T10:55:32.000Z,28.1
2018-03-02T10:57:32.000Z,28.1
2018-03-02T10:58:32.000Z,28.1
2018-03-02T10:59:32.000Z,28.1
2018-03-02T11:01:32.000Z,28.2
2018-03-02T11:03:32.000Z,28.2
2018-03-02T11:04:32.000Z,28.2
2018-03-02T11:06:32.000Z,28.3
2018-03-02T11:08:32.000Z,28.3
2018-03-02T11:10:32.000Z,28.3
2018-03-02T11:11:32.000Z,28.4
2018-03-02T11:12:32.000Z,28.4
2018-03-02T11:14:32.000Z,28.5
2018-03-02T11:16:32.000Z,28.4
2018-03-02T11:17:32.000Z,28.4
2018-03-02T11:19:32.000Z,28.4
2018-03-02T11:21:32.000Z,28.4
2018-03-02T11:23:32.000Z,28.4
2018-03-02T11:24:32.000Z,28.4
2018-03-02T11:25:32.000Z,28.5
2018-03-02T11:26:32.000Z,28.5
2018-03-02T11:28:32.000Z,28.6
2018-03-02T11:29:32.000Z,28.6
2018-03-02T11:30:32.000Z,28.6
2018-03-02T11:31:32.000Z,28.6
2018-03-02T11:33:32.000Z,28.6
2018-03-02T11:34:32.000Z,28.6
2018-03-02T11:36:32.000Z,28.6
2018-03-02T11:37:32.000Z,28.6
2018-03-02T11:39:17.000Z,28.5
2018-03-02T11:40:32.000Z,28.5
2018-03-02T11:41:32.000Z,28.4
2018-03-02T11:43:32.000Z,28.4
2018-03-02T11:44:32.000Z,28.4
2018-03-02T11:45:32.000Z,28.4
2018-03-02T11:46:32.000Z,28.4
2018-03-02T11:47:32.000Z,28.5
2018-03-02T11:49:17.000Z,28.5
2018-03-02T11:50:32.000Z,28.5
2018-03-02T11:52:32.000Z,28.4
2018-03-02T11:54:32.000Z,28.3
2018-03-02T11:55:32.000Z,28.2
2018-03-02T11:56:32.000Z,28.2
2018-03-02T11:58:32.000Z,28.3
2018-03-02T12:00:32.000Z,28.3
2018-03-02T12:01:32.000Z,28.3
2018-03-02T12:03:32.000Z,28.3
2018-03-02T12:04:32.000Z,28.3
2018-03-02T12:06:32.000Z,28.3
2018-03-02T12:08:17.000Z,28.3
2018-03-02T12:09:32.000Z,28.2
2018-03-02T12:10:32.000Z,28.2
2018-03-02T12:12:17.000Z,28.3
2018-03-02T12:13:32.000Z,28.2
2018-03-02T12:15:32.000Z,28.2
2018-03-02T12:16:32.000Z,28.1
2018-03-02T12:17:32.000Z,28.2
2018-03-02T12:18:32.000Z,28.2
2018-03-02T12:20:17.000Z,28.3
2018-03-02T12:21:32.000Z,28.2
2018-03-02T12:22:32.000Z,28.2
2018-03-02T12:23:32.000Z,28.2
2018-03-02T12:25:32.000Z,28.3
2018-03-02T12:27:17.000Z,28.3
2018-03-02T12:28:32.000Z,28.2
2018-03-02T12:29:32.000Z,28.2
2018-03-02T12:30:32.000Z,28.3
2018-03-02T12:32:32.000Z,28.3
2018-03-02T12:33:32.000Z,28.3
2018-03-02T12:34:32.000Z,28.4
2018-03-02T12:36:32.000Z,28.4
2018-03-02T12:38:32.000Z,28.4
2018-03-02T12:39:32.000Z,28.4
2018-03-02T12:40:32.000Z,28.4
2018-03-02T12:42:17.000Z,28.4
2018-03-02T12:43:32.000Z,28.3
2018-03-02T12:44:32.000Z,28.3
2018-03-02T12:46:32.000Z,28.3
2018-03-02T12:47:32.000Z,28.3
2018-03-02T12:49:32.000Z,28.3
2018-03-02T12:51:32.000Z,28.3
2018-03-02T12:53:32.000Z,28.2
2018-03-02T12:54:32.000Z,28.2
2018-03-02T12:56:32.000Z,28.3
2018-03-02T12:58:32.000Z,28.2
2018-03-02T13:00:32.000Z,28.2
2018-03-02T13:02:32.000Z,28.1
2018-03-02T13:04:32.000Z,28.1
2018-03-02T13:06:32.000Z,28
2018-03-02T13:07:32.000Z,28
2018-03-02T13:09:32.000Z,28.1
2018-03-02T13:10:32.000Z,28.1
2018-03-02T13:12:32.000Z,28.1
2018-03-02T13:13:32.000Z,28.2
2018-03-02T13:14:32.000Z,28.3
2018-03-02T13:16:32.000Z,28.6
2018-03-02T13:18:32.000Z,28.9
2018-03-02T13:19:32.000Z,29
2018-03-02T13:20:32.000Z,29
2018-03-02T13:22:32.000Z,29.1
2018-03-02T13:23:32.000Z,29.2
2018-03-02T13:25:32.000Z,29.3
2018-03-02T13:26:32.000Z,29.4
2018-03-02T13:28:32.000Z,29.7
2018-03-02T13:30:32.000Z,30
2018-03-02T13:31:32.000Z,30.1
2018-03-02T13:33:32.000Z,30.3
2018-03-02T13:35:32.000Z,30.2
2018-03-02T13:37:32.000Z,30.1
2018-03-02T13:39:32.000Z,30
2018-03-02T13:41:32.000Z,30
2018-03-02T13:43:32.000Z,29.8
2018-03-02T13:44:32.000Z,29.8
2018-03-02T13:45:32.000Z,29.8
2018-03-02T13:47:32.000Z,29.8
2018-03-02T13:48:32.000Z,29.8
2018-03-02T13:50:32.000Z,29.9
2018-03-02T13:52:32.000Z,29.8
2018-03-02T13:53:32.000Z,29.8
2018-03-02T13:55:17.000Z,29.9
2018-03-02T13:56:32.000Z,29.8
2018-03-02T13:57:32.000Z,29.8
2018-03-02T13:59:32.000Z,29.7
2018-03-02T14:00:32.000Z,29.7
2018-03-02T14:02:32.000Z,29.6
2018-03-02T14:03:32.000Z,29.5
2018-03-02T14:05:32.000Z,29.3
2018-03-02T14:06:32.000Z,29.3
2018-03-02T14:08:32.000Z,29.2
2018-03-02T14:09:32.000Z,29.2
2018-03-02T14:11:32.000Z,29.2
2018-03-02T14:13:32.000Z,29.1
2018-03-02T14:14:32.000Z,29.1
2018-03-02T14:16:32.000Z,29.1
2018-03-02T14:18:32.000Z,29
2018-03-02T14:19:32.000Z,29
2018-03-02T14:21:32.000Z,29
2018-03-02T14:23:32.000Z,29
2018-03-02T14:25:32.000Z,28.9
2018-03-02T14:27:32.000Z,28.8
2018-03-02T14:28:32.000Z,28.8
2018-03-02T14:29:32.000Z,28.8
2018-03-02T14:31:32.000Z,29
2018-03-02T14:33:32.000Z,29.1
2018-03-02T14:35:32.000Z,29.1
2018-03-02T14:37:32.000Z,29.2
2018-03-02T14:38:32.000Z,29.2
2018-03-02T14:40:32.000Z,29.3
2018-03-02T14:42:32.000Z,29.2
2018-03-02T14:43:32.000Z,29.2
2018-03-02T14:45:32.000Z,29.2
2018-03-02T14:46:32.000Z,29.2
2018-03-02T14:47:32.000Z,29.3
2018-03-02T14:49:32.000Z,29.3
2018-03-02T14:51:32.000Z,29.4
2018-03-02T14:52:32.000Z,29.4
2018-03-02T14:54:17.000Z,29.4
2018-03-02T14:55:32.000Z,29.4
2018-03-02T14:56:32.000Z,29.3
2018-03-02T14:58:32.000Z,29.4
2018-03-02T14:59:32.000Z,29.4
2018-03-02T15:00:32.000Z,29.4
2018-03-02T15:01:32.000Z,29.4
2018-03-02T15:03:32.000Z,29.3
2018-03-02T15:04:32.000Z,29.3
2018-03-02T15:06:32.000Z,29.3
2018-03-02T15:08:32.000Z,29.2
2018-03-02T15:10:32.000Z,29.2
2018-03-02T15:12:32.000Z,29.1
2018-03-02T15:13:32.000Z,29.1
2018-03-02T15:15:17.000Z,29.1
2018-03-02T15:16:32.000Z,29
2018-03-02T15:17:32.000Z,28.9
2018-03-02T15:19:32.000Z,28.9
2018-03-02T15:21:32.000Z,28.9
2018-03-02T15:22:32.000Z,28.9
2018-03-02T15:23:32.000Z,29
2018-03-02T15:25:32.000Z,28.9
2018-03-02T15:27:32.000Z,28.9
2018-03-02T15:29:32.000Z,28.9
2018-03-02T15:31:17.000Z,28.9
2018-03-02T15:32:32.000Z,28.9
2018-03-02T15:34:32.000Z,28.9
2018-03-02T15:36:32.000Z,28.9
2018-03-02T15:37:32.000Z,28.9
2018-03-02T15:39:32.000Z,28.9
2018-03-02T15:41:32.000Z,28.9
2018-03-02T15:43:32.000Z,28.9
2018-03-02T15:45:32.000Z,28.8
2018-03-02T15:47:32.000Z,28.8
2018-03-02T15:49:32.000Z,28.8
2018-03-02T15:51:32.000Z,28.8
2018-03-02T15:53:32.000Z,28.8
2018-03-02T15:54:32.000Z,28.8
2018-03-02T15:55:32.000Z,28.8
2018-03-02T15:57:32.000Z,28.9
2018-03-02T15:59:32.000Z,28.9
2018-03-02T16:01:32.000Z,28.8
2018-03-02T16:03:32.000Z,28.8
2018-03-02T16:04:32.000Z,28.8
2018-03-02T16:06:32.000Z,28.8
2018-03-02T16:07:32.000Z,28.8
2018-03-02T16:08:32.000Z,28.8
2018-03-02T16:09:32.000Z,28.9
2018-03-02T16:11:32.000Z,28.9
2018-03-02T16:13:32.000Z,28.9
2018-03-02T16:14:32.000Z,28.9
2018-03-02T16:15:32.000Z,28.9
2018-03-02T16:17:32.000Z,28.9
2018-03-02T16:18:32.000Z,28.9
2018-03-02T16:20:32.000Z,28.9
2018-03-02T16:21:32.000Z,28.9
2018-03-02T16:22:32.000Z,29
2018-03-02T16:24:32.000Z,29
2018-03-02T16:26:32.000Z,28.9
2018-03-02T16:28:32.000Z,28.7
2018-03-02T16:29:32.000Z,28.7
2018-03-02T16:31:32.000Z,28.7
2018-03-02T16:33:32.000Z,28.7
2018-03-02T16:34:32.000Z,28.7
2018-03-02T16:36:32.000Z,28.7
2018-03-02T16:37:32.000Z,28.7
2018-03-02T16:39:17.000Z,28.8
2018-03-02T16:40:32.000Z,28.7
2018-03-02T16:42:32.000Z,28.7
2018-03-02T16:44:32.000Z,28.6
2018-03-02T16:46:32.000Z,28.6
2018-03-02T16:48:17.000Z,28.5
2018-03-02T16:49:32.000Z,28.5
2018-03-02T16:51:32.000Z,28.5
2018-03-02T16:53:32.000Z,28.5
2018-03-02T16:55:32.000Z,28.5
2018-03-02T16:57:17.000Z,28.5
2018-03-02T16:58:32.000Z,28.4
2018-03-02T17:00:32.000Z,28.4
2018-03-02T17:02:32.000Z,28.4
2018-03-02T17:03:32.000Z,28.4
2018-03-02T17:04:32.000Z,28.4
2018-03-02T17:05:32.000Z,28.5
2018-03-02T17:07:32.000Z,28.5
2018-03-02T17:08:32.000Z,28.5
2018-03-02T17:09:32.000Z,28.6
2018-03-02T17:10:32.000Z,28.6
2018-03-02T17:12:32.000Z,28.7
2018-03-02T17:13:32.000Z,28.8
2018-03-02T17:14:33.000Z,28.8
2018-03-02T17:16:33.000Z,28.7
2018-03-02T17:18:33.000Z,28.6
2018-03-02T17:19:33.000Z,28.6
2018-03-02T17:20:33.000Z,28.6
2018-03-02T17:22:33.000Z,28.5
2018-03-02T17:23:33.000Z,28.5
2018-03-02T17:25:33.000Z,28.5
2018-03-02T17:26:33.000Z,28.5
2018-03-02T17:27:33.000Z,28.5
2018-03-02T17:29:33.000Z,28.5
2018-03-02T17:30:33.000Z,28.5
2018-03-02T17:32:33.000Z,28.4
2018-03-02T17:33:33.000Z,28.4
2018-03-02T17:35:33.000Z,28.3
2018-03-02T17:36:33.000Z,28.3
2018-03-02T17:37:33.000Z,28.3
2018-03-02T17:38:33.000Z,28.3
2018-03-02T17:39:33.000Z,28.4
2018-03-02T17:40:33.000Z,28.4
2018-03-02T17:42:33.000Z,28.3
2018-03-02T17:44:33.000Z,28.2
2018-03-02T17:45:33.000Z,28.2
2018-03-02T17:47:33.000Z,28.2
2018-03-02T17:49:17.000Z,28.2
2018-03-02T17:50:33.000Z,28.1
2018-03-02T17:51:33.000Z,28.1
2018-03-02T17:52:33.000Z,28.1
2018-03-02T17:54:33.000Z,28.2
2018-03-02T17:56:17.000Z,28.2
2018-03-02T17:57:33.000Z,28.1
2018-03-02T17:58:33.000Z,28.1
2018-03-02T18:00:33.000Z,28.1
2018-03-02T18:02:17.000Z,28.1
2018-03-02T18:03:33.000Z,28
2018-03-02T18:04:33.000Z,28.1
2018-03-02T18:05:33.000Z,28.1
2018-03-02T18:06:33.000Z,28.2
2018-03-02T18:07:33.000Z,28.2
2018-03-02T18:09:17.000Z,28.2
2018-03-02T18:10:33.000Z,28.2
2018-03-02T18:11:33.000Z,28.2
2018-03-02T18:13:17.000Z,28.2
2018-03-02T18:14:33.000Z,28.2
2018-03-02T18:15:33.000Z,28.2
2018-03-02T18:16:33.000Z,28.2
2018-03-02T18:17:32.000Z,28.2
2018-03-02T18:19:32.000Z,28.1
2018-03-02T18:21:32.000Z,28
2018-03-02T18:22:32.000Z,28
2018-03-02T18:24:17.000Z,28
2018-03-02T18:25:32.000Z,28
2018-03-02T18:26:32.000Z,28
2018-03-02T18:28:32.000Z,28
2018-03-02T18:29:32.000Z,28
2018-03-02T18:31:32.000Z,28
2018-03-02T18:32:32.000Z,28
2018-03-02T18:34:32.000Z,27.9
2018-03-02T18:35:32.000Z,27.9
2018-03-02T18:37:32.000Z,27.9
2018-03-02T18:38:32.000Z,27.9
2018-03-02T18:39:32.000Z,28
2018-03-02T18:41:32.000Z,28
2018-03-02T18:43:17.000Z,27.9
2018-03-02T18:44:32.000Z,27.8
2018-03-02T18:46:17.000Z,27.8
2018-03-02T18:47:32.000Z,27.8
2018-03-02T18:48:32.000Z,27.8
2018-03-02T18:49:32.000Z,27.8
2018-03-02T18:50:32.000Z,27.9
2018-03-02T18:51:32.000Z,27.9
2018-03-02T18:53:32.000Z,27.9
2018-03-02T18:55:32.000Z,27.9
2018-03-02T18:56:32.000Z,27.9
2018-03-02T18:58:32.000Z,27.9
2018-03-02T19:00:32.000Z,27.8
2018-03-02T19:01:32.000Z,27.8
2018-03-02T19:03:32.000Z,27.8
2018-03-02T19:05:32.000Z,27.8
2018-03-02T19:06:32.000Z,27.8
2018-03-02T19:07:32.000Z,27.8
2018-03-02T19:09:17.000Z,27.8
2018-03-02T19:10:32.000Z,27.8
2018-03-02T19:11:32.000Z,27.8
2018-03-02T19:12:32.000Z,27.9
2018-03-02T19:14:32.000Z,27.8
2018-03-02T19:16:32.000Z,27.7
2018-03-02T19:18:32.000Z,27.7
2018-03-02T19:20:32.000Z,27.6
2018-03-02T19:22:33.000Z,27.6
2018-03-02T19:24:32.000Z,27.6
2018-03-02T19:25:33.000Z,27.6
2018-03-02T19:27:32.000Z,27.6
2018-03-02T19:29:33.000Z,27.5
2018-03-02T19:31:32.000Z,27.5
2018-03-02T19:33:32.000Z,27.5
2018-03-02T19:34:32.000Z,27.5
2018-03-02T19:35:32.000Z,27.5
2018-03-02T19:37:17.000Z,27.6
2018-03-02T19:38:32.000Z,27.5
2018-03-02T19:39:32.000Z,27.5
2018-03-02T19:40:32.000Z,27.5
2018-03-02T19:42:32.000Z,27.5
2018-03-02T19:44:32.000Z,27.5
2018-03-02T19:46:33.000Z,27.4
2018-03-02T19:48:33.000Z,27.4
2018-03-02T19:50:17.000Z,27.3
2018-03-02T19:51:33.000Z,27.3
2018-03-02T19:53:32.000Z,27.3
2018-03-02T19:54:32.000Z,27.3
2018-03-02T19:55:33.000Z,27.3
2018-03-02T19:57:17.000Z,27.4
2018-03-02T19:58:33.000Z,27.4
2018-03-02T20:00:17.000Z,27.4
2018-03-02T20:01:32.000Z,27.4
2018-03-02T20:02:33.000Z,27.4
2018-03-02T20:04:33.000Z,27.3
2018-03-02T20:05:33.000Z,27.3
2018-03-02T20:07:33.000Z,27.3
2018-03-02T20:09:32.000Z,27.2
2018-03-02T20:11:33.000Z,27.1
2018-03-02T20:13:33.000Z,27
2018-03-02T20:15:32.000Z,27
2018-03-02T20:17:32.000Z,27
2018-03-02T20:18:32.000Z,27
2018-03-02T20:19:33.000Z,27.1
2018-03-02T20:21:17.000Z,27.1
2018-03-02T20:22:32.000Z,27.1
2018-03-02T20:23:32.000Z,27.1
2018-03-02T20:24:32.000Z,27.2